Terminal Aerodrome Forecast
Issued by NWS Denver/Boulder, CO

Home | Current Version | Previous Version | Text Only | Print | Product List | Glossary On
Versions: 1 2 3 4 5 6 7 8 9 10 11 12 13 14 15 16 17 18 19 20 21 22 23 24 25 26 27 28 29 30 31 32 33 34 35 36 37 38 39 40 41 42 43 44 45 46 47 48 49 50
000
FTUS45 KBOU 270043 AAA
TAFDEN
TAF AMD
KDEN 270043Z 2701/2806 36011KT P6SM FEW070 BKN120
     FM270120 32013G22KT P6SM FEW040 BKN100
      TEMPO 2702/2703 VRB15G25KT 5SM TSRA SCT030CB OVC060CB
     FM270300 12009KT P6SM VCSH BKN045 BKN080
     FM270700 19007KT P6SM SCT050 BKN100
      TEMPO 2710/2714 BKN030
     FM271600 09009KT P6SM BKN040
     FM271900 13012KT P6SM SCT050 BKN080
     FM272200 14012KT P6SM VCTS SCT060CB BKN080
     FM280400 20010KT P6SM SCT040 BKN060=

USA.gov is the U.S. government's official web portal to all federal, state and local government web resources and services.